Phoenix, AZ (85033)

5:05 PM MST on October 24, 2014 (GMT -0700)
83AVE & Camelback | Change Station
CLOSE
Current Station
Personal Weather Station
Location: Glendale, AZ
Elevation: 1076 ft
Nearby Weather Stations

Elev 1076 ft 33.51 °N, 112.23 °W | Updated 2 minutes ago

Clear
Clear
90.5 °F
Feels Like 87 °F
N
1.0
Wind Variable Wind from NE
Gusts 1.0 mph

Today
High -- | Low -- °F
--% Chance of Precip.
Yesterday
High -- | Low -- °F
Precip. -- in
6:40 AM 5:44 PM
New Moon, 1% visible
Pressure 29.95 in
Visibility 20.0 miles
Clouds Clear
Heat Index 87 °F
Dew Point 48 °F
Humidity 23%
Rainfall 0.00 in
Snow Depth Not available.
UV 0.0 out of 12
Pollen 5.40 out of 12
Ozone Good
PM2.5 Good
Flu Activity No Activity
METAR KGEU 242347Z 00000KT 20SM SKC 34/08 A2995

More Conditions Fewer Conditions

Pressure 29.95 in
Visibility 20.0 miles
Clouds Clear
Heat Index 87 °F
Dew Point 48 °F
Humidity 23%
Rainfall 0.00 in
Snow Depth Not available.
UV 0.0 out of 12
Pollen 5.40 out of 12
Ozone Good
PM2.5 Good
Flu Activity No Activity
METAR KGEU 242347Z 00000KT 20SM SKC 34/08 A2995

More Conditions Fewer Conditions

10-Day Weather Forecast

Almanac

Astronomy

Oct. 24, 2014 Rise Set
Actual Time 6:40 AM MST 5:44 PM MST
Civil Twilight 6:15 AM MST 6:10 PM MST
Nautical Twilight 5:46 AM MST 6:39 PM MST
Astronomical Twilight 5:17 AM MST 7:08 PM MST
Moon 7:21 AM MST (10/24) 6:29 PM MST (10/24)
Length of Visible Light 11h 54m
Length of Day
11h 03m
Tomorrow will be 1m 54s shorter.
New Moon, 1% of the Moon is Illuminated
Today
New Moon
Oct 30
First Quarter
Nov 6
Full
Nov 14
Last Quarter
Nov 22
New

Today's Extremes

State Highs State Lows

Community

WunderPhotos

Upload Photos

1,764,721 photos uploaded!

Nearby

Air Quality

  Air Quality AQ Index Pollutant
Yesterday Good
PM2.5
Yesterday Good
OZONE
Current Good
OZONE
Current Good
PM2.5
Friday Good
OZONE
Friday Good
PM10
Friday Good
CO
Saturday Good
PM2.5
Saturday Good
OZONE
Saturday Good
CO
Sunday Good
PM2.5
Sunday Good
OZONE
Sunday Good
CO

Snow Depth

Station Depth Elevation
Baldy 0 in 9125 ft
Hannagan Meadows 0 in 9020 ft
Beaver Head 1 in 7990 ft

Earthquake Activity

City Distance Mag. Time & Date
No recent earthquake activity has been reported nearby.
Minimum magnitude displayed is 2.5.

Coastal Water Temperatures

Place Temperature
No Stations Reporting

Nearby Weather Stations